sensor_id;sensor_type;location;lat;lon;timestamp;pressure;altitude;pressure_sealevel;temperature;humidity
62948;BME280;51940;52.126;-0.994;2023-04-25T00:00:34;100419.09;;;3.08;100.00
62948;BME280;51940;52.126;-0.994;2023-04-25T00:03:01;100428.77;;;3.06;100.00
62948;BME280;51940;52.126;-0.994;2023-04-25T00:05:34;100430.83;;;3.00;100.00
62948;BME280;51940;52.126;-0.994;2023-04-25T00:08:02;100431.69;;;2.95;100.00
62948;BME280;51940;52.126;-0.994;2023-04-25T00:10:31;100429.90;;;2.92;100.00
62948;BME280;51940;52.126;-0.994;2023-04-25T00:12:58;100431.27;;;2.89;100.00
62948;BME280;51940;52.126;-0.994;2023-04-25T00:15:30;100430.55;;;2.86;100.00
62948;BME280;51940;52.126;-0.994;2023-04-25T00:18:01;100425.77;;;2.81;100.00
62948;BME280;51940;52.126;-0.994;2023-04-25T00:20:28;100425.91;;;2.77;100.00
62948;BME280;51940;52.126;-0.994;2023-04-25T00:22:56;100431.50;;;2.72;100.00
62948;BME280;51940;52.126;-0.994;2023-04-25T00:25:23;100430.23;;;2.66;100.00
62948;BME280;51940;52.126;-0.994;2023-04-25T00:27:49;100429.30;;;2.63;100.00
62948;BME280;51940;52.126;-0.994;2023-04-25T00:30:14;100430.15;;;2.58;100.00
62948;BME280;51940;52.126;-0.994;2023-04-25T00:32:42;100428.70;;;2.55;100.00
62948;BME280;51940;52.126;-0.994;2023-04-25T00:35:09;100427.98;;;2.51;100.00
62948;BME280;51940;52.126;-0.994;2023-04-25T00:37:34;100427.97;;;2.49;100.00
62948;BME280;51940;52.126;-0.994;2023-04-25T00:40:01;100426.52;;;2.46;100.00
62948;BME280;51940;52.126;-0.994;2023-04-25T00:42:28;100425.43;;;2.42;100.00
62948;BME280;51940;52.126;-0.994;2023-04-25T00:44:53;100433.48;;;2.38;100.00
62948;BME280;51940;52.126;-0.994;2023-04-25T00:47:20;100429.40;;;2.35;100.00
62948;BME280;51940;52.126;-0.994;2023-04-25T00:49:51;100435.73;;;2.33;100.00
62948;BME280;51940;52.126;-0.994;2023-04-25T00:52:20;100435.87;;;2.30;100.00
62948;BME280;51940;52.126;-0.994;2023-04-25T00:54:46;100438.85;;;2.30;100.00
62948;BME280;51940;52.126;-0.994;2023-04-25T00:57:12;100438.65;;;2.27;100.00
62948;BME280;51940;52.126;-0.994;2023-04-25T00:59:39;100437.41;;;2.25;100.00
62948;BME280;51940;52.126;-0.994;2023-04-25T01:02:10;100439.34;;;2.25;100.00
62948;BME280;51940;52.126;-0.994;2023-04-25T01:04:36;100436.17;;;2.24;100.00
62948;BME280;51940;52.126;-0.994;2023-04-25T01:07:02;100444.03;;;2.20;100.00
62948;BME280;51940;52.126;-0.994;2023-04-25T01:09:28;100440.50;;;2.18;100.00
62948;BME280;51940;52.126;-0.994;2023-04-25T01:11:56;100440.30;;;2.15;100.00
62948;BME280;51940;52.126;-0.994;2023-04-25T01:14:25;100445.88;;;2.13;100.00
62948;BME280;51940;52.126;-0.994;2023-04-25T01:16:50;100446.23;;;2.11;100.00
62948;BME280;51940;52.126;-0.994;2023-04-25T01:19:16;100445.68;;;2.10;100.00
62948;BME280;51940;52.126;-0.994;2023-04-25T01:21:43;100449.92;;;2.11;100.00
62948;BME280;51940;52.126;-0.994;2023-04-25T01:24:11;100454.16;;;2.13;100.00
62948;BME280;51940;52.126;-0.994;2023-04-25T01:26:45;100452.25;;;2.14;100.00
62948;BME280;51940;52.126;-0.994;2023-04-25T01:29:15;100458.91;;;2.13;100.00
62948;BME280;51940;52.126;-0.994;2023-04-25T01:31:57;100452.20;;;2.11;100.00
62948;BME280;51940;52.126;-0.994;2023-04-25T01:34:31;100451.31;;;2.10;100.00
62948;BME280;51940;52.126;-0.994;2023-04-25T01:37:00;100450.59;;;2.07;100.00
62948;BME280;51940;52.126;-0.994;2023-04-25T01:39:46;100451.78;;;2.05;100.00
62948;BME280;51940;52.126;-0.994;2023-04-25T01:42:15;100450.54;;;2.04;100.00
62948;BME280;51940;52.126;-0.994;2023-04-25T01:44:40;100451.23;;;2.02;100.00
62948;BME280;51940;52.126;-0.994;2023-04-25T01:47:08;100450.33;;;2.00;100.00
62948;BME280;51940;52.126;-0.994;2023-04-25T01:49:37;100452.05;;;1.97;100.00
62948;BME280;51940;52.126;-0.994;2023-04-25T01:52:15;100450.42;;;1.94;100.00
62948;BME280;51940;52.126;-0.994;2023-04-25T01:54:42;100449.20;;;1.95;100.00
62948;BME280;51940;52.126;-0.994;2023-04-25T02:00:13;100463.45;;;1.95;100.00
62948;BME280;51940;52.126;-0.994;2023-04-25T02:02:38;100460.80;;;1.93;100.00
62948;BME280;51940;52.126;-0.994;2023-04-25T02:05:03;100463.23;;;1.90;100.00
62948;BME280;51940;52.126;-0.994;2023-04-25T02:07:29;100459.84;;;1.88;100.00
62948;BME280;51940;52.126;-0.994;2023-04-25T02:09:54;100454.73;;;1.87;100.00
62948;BME280;51940;52.126;-0.994;2023-04-25T02:12:20;100452.09;;;1.86;100.00
62948;BME280;51940;52.126;-0.994;2023-04-25T02:14:46;100450.50;;;1.85;100.00
62948;BME280;51940;52.126;-0.994;2023-04-25T02:17:11;100450.84;;;1.84;100.00
62948;BME280;51940;52.126;-0.994;2023-04-25T02:19:37;100456.64;;;1.84;100.00
62948;BME280;51940;52.126;-0.994;2023-04-25T02:22:03;100456.98;;;1.83;100.00
62948;BME280;51940;52.126;-0.994;2023-04-25T02:24:28;100463.14;;;1.82;100.00
62948;BME280;51940;52.126;-0.994;2023-04-25T02:26:54;100462.77;;;1.81;100.00
62948;BME280;51940;52.126;-0.994;2023-04-25T02:29:21;100465.05;;;1.81;100.00
62948;BME280;51940;52.126;-0.994;2023-04-25T02:31:46;100467.47;;;1.78;100.00
62948;BME280;51940;52.126;-0.994;2023-04-25T02:34:12;100465.66;;;1.74;100.00
62948;BME280;51940;52.126;-0.994;2023-04-25T02:36:37;100467.56;;;1.71;100.00
62948;BME280;51940;52.126;-0.994;2023-04-25T02:39:03;100470.15;;;1.67;100.00
62948;BME280;51940;52.126;-0.994;2023-04-25T02:44:29;100473.55;;;1.58;100.00
62948;BME280;51940;52.126;-0.994;2023-04-25T02:46:54;100469.91;;;1.50;100.00
62948;BME280;51940;52.126;-0.994;2023-04-25T02:49:20;100472.50;;;1.46;100.00
62948;BME280;51940;52.126;-0.994;2023-04-25T02:51:45;100471.23;;;1.45;100.00
62948;BME280;51940;52.126;-0.994;2023-04-25T02:54:13;100473.15;;;1.43;100.00
62948;BME280;51940;52.126;-0.994;2023-04-25T02:56:39;100476.46;;;1.40;100.00
62948;BME280;51940;52.126;-0.994;2023-04-25T02:59:04;100478.48;;;1.35;100.00
62948;BME280;51940;52.126;-0.994;2023-04-25T03:01:30;100479.14;;;1.31;100.00
62948;BME280;51940;52.126;-0.994;2023-04-25T03:03:55;100476.98;;;1.28;100.00
62948;BME280;51940;52.126;-0.994;2023-04-25T03:06:21;100479.05;;;1.25;100.00
62948;BME280;51940;52.126;-0.994;2023-04-25T03:08:48;100486.70;;;1.20;100.00
62948;BME280;51940;52.126;-0.994;2023-04-25T03:11:19;100482.59;;;1.16;100.00
62948;BME280;51940;52.126;-0.994;2023-04-25T03:13:46;100484.19;;;1.17;100.00
62948;BME280;51940;52.126;-0.994;2023-04-25T03:16:12;100481.86;;;1.13;100.00
62948;BME280;51940;52.126;-0.994;2023-04-25T03:18:37;100480.80;;;1.13;100.00
62948;BME280;51940;52.126;-0.994;2023-04-25T03:21:09;100483.95;;;1.12;100.00
62948;BME280;51940;52.126;-0.994;2023-04-25T03:23:34;100482.52;;;1.11;100.00
62948;BME280;51940;52.126;-0.994;2023-04-25T03:26:02;100489.54;;;1.11;100.00
62948;BME280;51940;52.126;-0.994;2023-04-25T03:28:27;100493.19;;;1.08;100.00
62948;BME280;51940;52.126;-0.994;2023-04-25T03:30:53;100499.82;;;1.05;100.00
62948;BME280;51940;52.126;-0.994;2023-04-25T03:33:19;100503.80;;;1.02;100.00
62948;BME280;51940;52.126;-0.994;2023-04-25T03:35:45;100499.16;;;0.97;100.00
62948;BME280;51940;52.126;-0.994;2023-04-25T03:38:10;100502.41;;;0.93;100.00
62948;BME280;51940;52.126;-0.994;2023-04-25T03:40:35;100511.67;;;0.89;100.00
62948;BME280;51940;52.126;-0.994;2023-04-25T03:43:01;100508.84;;;0.87;100.00
62948;BME280;51940;52.126;-0.994;2023-04-25T03:45:26;100510.77;;;0.87;100.00
62948;BME280;51940;52.126;-0.994;2023-04-25T03:47:51;100510.16;;;0.83;100.00
62948;BME280;51940;52.126;-0.994;2023-04-25T03:50:17;100516.42;;;0.80;100.00
62948;BME280;51940;52.126;-0.994;2023-04-25T03:52:42;100521.09;;;0.76;100.00
62948;BME280;51940;52.126;-0.994;2023-04-25T03:55:08;100518.26;;;0.75;100.00
62948;BME280;51940;52.126;-0.994;2023-04-25T03:57:34;100522.45;;;0.73;100.00
62948;BME280;51940;52.126;-0.994;2023-04-25T03:59:59;100522.97;;;0.73;100.00
62948;BME280;51940;52.126;-0.994;2023-04-25T04:02:25;100526.79;;;0.69;100.00
62948;BME280;51940;52.126;-0.994;2023-04-25T04:04:50;100527.06;;;0.67;100.00
62948;BME280;51940;52.126;-0.994;2023-04-25T04:07:15;100531.45;;;0.67;100.00
62948;BME280;51940;52.126;-0.994;2023-04-25T04:09:43;100534.96;;;0.66;100.00
62948;BME280;51940;52.126;-0.994;2023-04-25T04:12:08;100539.19;;;0.67;100.00
62948;BME280;51940;52.126;-0.994;2023-04-25T04:14:34;100542.70;;;0.68;100.00
62948;BME280;51940;52.126;-0.994;2023-04-25T04:17:04;100531.67;;;0.68;100.00
62948;BME280;51940;52.126;-0.994;2023-04-25T04:19:31;100534.88;;;0.70;100.00
62948;BME280;51940;52.126;-0.994;2023-04-25T04:21:56;100533.65;;;0.71;100.00
62948;BME280;51940;52.126;-0.994;2023-04-25T04:24:21;100536.30;;;0.72;100.00
62948;BME280;51940;52.126;-0.994;2023-04-25T04:26:47;100537.19;;;0.72;100.00
62948;BME280;51940;52.126;-0.994;2023-04-25T04:29:12;100534.19;;;0.71;100.00
62948;BME280;51940;52.126;-0.994;2023-04-25T04:31:46;100535.92;;;0.70;100.00
62948;BME280;51940;52.126;-0.994;2023-04-25T04:34:11;100534.11;;;0.68;100.00
62948;BME280;51940;52.126;-0.994;2023-04-25T04:36:37;100521.91;;;0.62;100.00
62948;BME280;51940;52.126;-0.994;2023-04-25T04:39:05;100521.31;;;0.58;100.00
62948;BME280;51940;52.126;-0.994;2023-04-25T04:41:30;100523.71;;;0.55;100.00
62948;BME280;51940;52.126;-0.994;2023-04-25T04:43:56;100535.99;;;0.55;100.00
62948;BME280;51940;52.126;-0.994;2023-04-25T04:46:21;100533.52;;;0.53;100.00
62948;BME280;51940;52.126;-0.994;2023-04-25T04:48:46;100532.48;;;0.54;100.00
62948;BME280;51940;52.126;-0.994;2023-04-25T04:51:12;100536.73;;;0.57;100.00
62948;BME280;51940;52.126;-0.994;2023-04-25T04:53:37;100545.55;;;0.60;100.00
62948;BME280;51940;52.126;-0.994;2023-04-25T04:56:02;100554.77;;;0.65;100.00
62948;BME280;51940;52.126;-0.994;2023-04-25T04:58:28;100564.00;;;0.70;100.00
62948;BME280;51940;52.126;-0.994;2023-04-25T05:00:54;100564.63;;;0.76;100.00
62948;BME280;51940;52.126;-0.994;2023-04-25T05:03:20;100563.02;;;0.83;100.00
62948;BME280;51940;52.126;-0.994;2023-04-25T05:05:45;100563.64;;;0.89;100.00
62948;BME280;51940;52.126;-0.994;2023-04-25T05:08:11;100570.39;;;0.94;100.00
62948;BME280;51940;52.126;-0.994;2023-04-25T05:10:36;100573.28;;;0.98;100.00
62948;BME280;51940;52.126;-0.994;2023-04-25T05:13:02;100575.33;;;1.05;100.00
62948;BME280;51940;52.126;-0.994;2023-04-25T05:15:27;100573.13;;;1.20;100.00
62948;BME280;51940;52.126;-0.994;2023-04-25T05:17:53;100570.60;;;1.86;100.00
62948;BME280;51940;52.126;-0.994;2023-04-25T05:20:19;100570.08;;;2.89;100.00
62948;BME280;51940;52.126;-0.994;2023-04-25T05:22:45;100567.39;;;3.99;100.00
62948;BME280;51940;52.126;-0.994;2023-04-25T05:25:12;100572.68;;;5.06;100.00
62948;BME280;51940;52.126;-0.994;2023-04-25T05:27:37;100583.05;;;6.14;100.00
62948;BME280;51940;52.126;-0.994;2023-04-25T05:30:12;100588.86;;;7.23;100.00
62948;BME280;51940;52.126;-0.994;2023-04-25T05:36:28;100609.47;;;9.94;100.00
62948;BME280;51940;52.126;-0.994;2023-04-25T05:39:15;100623.80;;;11.15;100.00
62948;BME280;51940;52.126;-0.994;2023-04-25T05:42:00;100651.73;;;12.28;100.00
62948;BME280;51940;52.126;-0.994;2023-04-25T05:45:10;100662.85;;;13.56;100.00
62948;BME280;51940;52.126;-0.994;2023-04-25T05:47:48;100666.70;;;14.54;100.00
62948;BME280;51940;52.126;-0.994;2023-04-25T05:50:48;100676.77;;;15.63;100.00
62948;BME280;51940;52.126;-0.994;2023-04-25T05:53:22;100681.96;;;16.49;100.00
62948;BME280;51940;52.126;-0.994;2023-04-25T06:02:46;100699.93;;;19.22;100.00
62948;BME280;51940;52.126;-0.994;2023-04-25T06:05:11;100698.00;;;19.83;100.00
62948;BME280;51940;52.126;-0.994;2023-04-25T06:07:37;100694.85;;;20.24;100.00
62948;BME280;51940;52.126;-0.994;2023-04-25T06:10:05;100692.19;;;20.47;100.00
62948;BME280;51940;52.126;-0.994;2023-04-25T06:12:34;100693.30;;;20.59;100.00
62948;BME280;51940;52.126;-0.994;2023-04-25T06:15:00;100693.91;;;20.64;100.00
62948;BME280;51940;52.126;-0.994;2023-04-25T06:17:26;100693.40;;;20.05;100.00
62948;BME280;51940;52.126;-0.994;2023-04-25T06:19:51;100703.13;;;18.96;100.00
62948;BME280;51940;52.126;-0.994;2023-04-25T06:22:16;100704.74;;;17.54;100.00
62948;BME280;51940;52.126;-0.994;2023-04-25T06:24:42;100710.97;;;16.32;100.00
62948;BME280;51940;52.126;-0.994;2023-04-25T06:27:07;100717.56;;;15.12;100.00
62948;BME280;51940;52.126;-0.994;2023-04-25T06:29:32;100722.23;;;14.10;100.00
62948;BME280;51940;52.126;-0.994;2023-04-25T06:32:00;100728.43;;;13.33;100.00
62948;BME280;51940;52.126;-0.994;2023-04-25T06:34:26;100729.00;;;12.62;100.00
62948;BME280;51940;52.126;-0.994;2023-04-25T06:36:51;100729.89;;;11.93;100.00
62948;BME280;51940;52.126;-0.994;2023-04-25T06:39:16;100735.59;;;11.39;100.00
62948;BME280;51940;52.126;-0.994;2023-04-25T06:41:42;100735.57;;;10.97;100.00
62948;BME280;51940;52.126;-0.994;2023-04-25T06:44:07;100740.14;;;10.54;100.00
62948;BME280;51940;52.126;-0.994;2023-04-25T06:46:32;100738.95;;;10.09;100.00
62948;BME280;51940;52.126;-0.994;2023-04-25T06:48:58;100740.98;;;9.70;100.00
62948;BME280;51940;52.126;-0.994;2023-04-25T06:51:23;100743.52;;;9.43;100.00
62948;BME280;51940;52.126;-0.994;2023-04-25T06:53:49;100745.56;;;9.22;100.00
62948;BME280;51940;52.126;-0.994;2023-04-25T06:56:15;100751.67;;;9.03;100.00
62948;BME280;51940;52.126;-0.994;2023-04-25T06:58:46;100748.11;;;8.73;100.00
62948;BME280;51940;52.126;-0.994;2023-04-25T07:04:32;100748.54;;;8.05;100.00
62948;BME280;51940;52.126;-0.994;2023-04-25T07:06:58;100748.42;;;7.73;100.00
62948;BME280;51940;52.126;-0.994;2023-04-25T07:09:28;100747.74;;;7.39;100.00
62948;BME280;51940;52.126;-0.994;2023-04-25T07:16:01;100741.42;;;7.25;100.00
62948;BME280;51940;52.126;-0.994;2023-04-25T07:24:17;100753.78;;;7.00;100.00
62948;BME280;51940;52.126;-0.994;2023-04-25T07:29:30;100757.27;;;7.14;100.00
62948;BME280;51940;52.126;-0.994;2023-04-25T07:31:57;100757.45;;;7.13;100.00
62948;BME280;51940;52.126;-0.994;2023-04-25T07:36:50;100760.45;;;7.18;100.00
62948;BME280;51940;52.126;-0.994;2023-04-25T07:50:19;100771.60;;;7.24;100.00
62948;BME280;51940;52.126;-0.994;2023-04-25T07:52:44;100768.86;;;7.40;100.00
62948;BME280;51940;52.126;-0.994;2023-04-25T07:55:10;100770.41;;;7.49;100.00
62948;BME280;51940;52.126;-0.994;2023-04-25T07:57:36;100772.85;;;7.56;100.00
62948;BME280;51940;52.126;-0.994;2023-04-25T08:00:04;100779.54;;;7.67;100.00
62948;BME280;51940;52.126;-0.994;2023-04-25T08:02:31;100777.00;;;7.74;100.00
62948;BME280;51940;52.126;-0.994;2023-04-25T08:04:57;100782.79;;;7.85;100.00
62948;BME280;51940;52.126;-0.994;2023-04-25T08:07:22;100786.99;;;7.95;100.00
62948;BME280;51940;52.126;-0.994;2023-04-25T08:09:48;100792.14;;;7.94;100.00
62948;BME280;51940;52.126;-0.994;2023-04-25T08:12:13;100787.69;;;7.97;100.00
62948;BME280;51940;52.126;-0.994;2023-04-25T08:14:39;100790.84;;;8.01;100.00
62948;BME280;51940;52.126;-0.994;2023-04-25T08:17:04;100793.67;;;8.03;100.00
62948;BME280;51940;52.126;-0.994;2023-04-25T08:19:30;100798.63;;;8.07;100.00
62948;BME280;51940;52.126;-0.994;2023-04-25T08:21:56;100800.70;;;8.15;100.00
62948;BME280;51940;52.126;-0.994;2023-04-25T08:24:21;100797.10;;;8.19;100.00
62948;BME280;51940;52.126;-0.994;2023-04-25T08:26:47;100795.95;;;8.31;100.00
62948;BME280;51940;52.126;-0.994;2023-04-25T08:29:13;100802.13;;;8.40;100.00
62948;BME280;51940;52.126;-0.994;2023-04-25T08:31:39;100807.06;;;8.43;100.00
62948;BME280;51940;52.126;-0.994;2023-04-25T08:34:04;100809.05;;;8.40;100.00
62948;BME280;51940;52.126;-0.994;2023-04-25T08:36:30;100815.86;;;8.30;100.00
62948;BME280;51940;52.126;-0.994;2023-04-25T08:38:56;100821.03;;;8.27;100.00
62948;BME280;51940;52.126;-0.994;2023-04-25T08:41:21;100831.74;;;8.21;100.00
62948;BME280;51940;52.126;-0.994;2023-04-25T08:43:48;100825.41;;;8.13;100.00
62948;BME280;51940;52.126;-0.994;2023-04-25T08:46:13;100824.89;;;8.10;100.00
62948;BME280;51940;52.126;-0.994;2023-04-25T08:48:42;100823.77;;;8.19;100.00
62948;BME280;51940;52.126;-0.994;2023-04-25T08:51:07;100821.00;;;8.34;100.00
62948;BME280;51940;52.126;-0.994;2023-04-25T08:53:35;100819.56;;;8.38;100.00
62948;BME280;51940;52.126;-0.994;2023-04-25T08:56:01;100822.39;;;8.40;100.00
62948;BME280;51940;52.126;-0.994;2023-04-25T08:58:27;100812.27;;;8.39;100.00
62948;BME280;51940;52.126;-0.994;2023-04-25T09:00:52;100809.51;;;8.49;100.00
62948;BME280;51940;52.126;-0.994;2023-04-25T09:03:17;100809.99;;;8.55;100.00
62948;BME280;51940;52.126;-0.994;2023-04-25T09:05:43;100808.93;;;8.53;100.00
62948;BME280;51940;52.126;-0.994;2023-04-25T09:08:08;100805.64;;;8.63;100.00
62948;BME280;51940;52.126;-0.994;2023-04-25T09:10:34;100806.23;;;8.76;100.00
62948;BME280;51940;52.126;-0.994;2023-04-25T09:15:29;100804.71;;;9.01;100.00
62948;BME280;51940;52.126;-0.994;2023-04-25T09:17:58;100796.77;;;9.12;100.00
62948;BME280;51940;52.126;-0.994;2023-04-25T09:20:23;100796.33;;;9.19;100.00
62948;BME280;51940;52.126;-0.994;2023-04-25T09:22:50;100798.70;;;9.15;100.00
62948;BME280;51940;52.126;-0.994;2023-04-25T09:25:26;100801.21;;;9.12;100.00
62948;BME280;51940;52.126;-0.994;2023-04-25T09:27:52;100806.73;;;9.12;100.00
62948;BME280;51940;52.126;-0.994;2023-04-25T09:30:18;100802.35;;;9.07;100.00
62948;BME280;51940;52.126;-0.994;2023-04-25T09:32:43;100797.45;;;9.15;100.00
62948;BME280;51940;52.126;-0.994;2023-04-25T09:35:09;100799.66;;;9.22;100.00
62948;BME280;51940;52.126;-0.994;2023-04-25T09:37:36;100801.98;;;9.23;100.00
62948;BME280;51940;52.126;-0.994;2023-04-25T09:40:05;100805.89;;;9.22;100.00
62948;BME280;51940;52.126;-0.994;2023-04-25T09:45:29;100803.43;;;9.34;100.00
62948;BME280;51940;52.126;-0.994;2023-04-25T09:47:59;100802.35;;;9.50;100.00
62948;BME280;51940;52.126;-0.994;2023-04-25T09:50:31;100808.42;;;9.47;100.00
62948;BME280;51940;52.126;-0.994;2023-04-25T09:53:02;100801.58;;;9.54;100.00
62948;BME280;51940;52.126;-0.994;2023-04-25T09:55:32;100806.80;;;9.76;100.00
62948;BME280;51940;52.126;-0.994;2023-04-25T09:58:00;100800.47;;;9.94;100.00
62948;BME280;51940;52.126;-0.994;2023-04-25T10:00:28;100800.30;;;10.18;100.00
62948;BME280;51940;52.126;-0.994;2023-04-25T10:02:54;100809.95;;;10.15;100.00
62948;BME280;51940;52.126;-0.994;2023-04-25T10:05:20;100812.89;;;10.10;100.00
62948;BME280;51940;52.126;-0.994;2023-04-25T10:07:46;100806.34;;;10.06;100.00
62948;BME280;51940;52.126;-0.994;2023-04-25T10:10:12;100807.92;;;10.08;100.00
62948;BME280;51940;52.126;-0.994;2023-04-25T10:12:37;100808.94;;;10.25;100.00
62948;BME280;51940;52.126;-0.994;2023-04-25T10:15:05;100816.39;;;10.39;100.00
62948;BME280;51940;52.126;-0.994;2023-04-25T10:17:31;100818.27;;;10.44;100.00
62948;BME280;51940;52.126;-0.994;2023-04-25T10:20:01;100812.15;;;10.47;100.00
62948;BME280;51940;52.126;-0.994;2023-04-25T10:22:35;100811.34;;;10.52;100.00
62948;BME280;51940;52.126;-0.994;2023-04-25T10:25:02;100814.62;;;10.38;100.00
62948;BME280;51940;52.126;-0.994;2023-04-25T10:27:29;100818.97;;;10.20;100.00
62948;BME280;51940;52.126;-0.994;2023-04-25T10:30:08;100822.29;;;10.13;100.00
62948;BME280;51940;52.126;-0.994;2023-04-25T10:32:36;100825.47;;;10.14;100.00
62948;BME280;51940;52.126;-0.994;2023-04-25T10:35:18;100825.30;;;10.14;100.00
62948;BME280;51940;52.126;-0.994;2023-04-25T10:40:22;100812.58;;;10.63;100.00
62948;BME280;51940;52.126;-0.994;2023-04-25T10:42:48;100816.35;;;10.71;100.00
62948;BME280;51940;52.126;-0.994;2023-04-25T10:45:13;100820.87;;;10.68;100.00
62948;BME280;51940;52.126;-0.994;2023-04-25T10:47:43;100818.02;;;10.48;100.00
62948;BME280;51940;52.126;-0.994;2023-04-25T10:50:14;100822.45;;;10.39;100.00
62948;BME280;51940;52.126;-0.994;2023-04-25T10:52:40;100825.00;;;10.35;100.00
62948;BME280;51940;52.126;-0.994;2023-04-25T10:55:05;100827.20;;;10.42;100.00
62948;BME280;51940;52.126;-0.994;2023-04-25T10:57:38;100823.98;;;10.53;100.00
62948;BME280;51940;52.126;-0.994;2023-04-25T11:02:49;100822.64;;;10.69;100.00
62948;BME280;51940;52.126;-0.994;2023-04-25T11:05:25;100821.42;;;10.78;100.00
62948;BME280;51940;52.126;-0.994;2023-04-25T11:07:54;100820.84;;;10.80;100.00
62948;BME280;51940;52.126;-0.994;2023-04-25T11:10:27;100824.75;;;10.81;100.00
62948;BME280;51940;52.126;-0.994;2023-04-25T11:12:52;100828.14;;;10.81;100.00
62948;BME280;51940;52.126;-0.994;2023-04-25T11:15:18;100822.40;;;10.83;100.00
62948;BME280;51940;52.126;-0.994;2023-04-25T11:17:43;100814.96;;;10.98;100.00
62948;BME280;51940;52.126;-0.994;2023-04-25T11:20:11;100818.45;;;11.12;100.00
62948;BME280;51940;52.126;-0.994;2023-04-25T11:22:39;100825.23;;;11.13;100.00
62948;BME280;51940;52.126;-0.994;2023-04-25T11:25:07;100820.64;;;11.18;100.00
62948;BME280;51940;52.126;-0.994;2023-04-25T11:27:33;100817.56;;;11.39;100.00
62948;BME280;51940;52.126;-0.994;2023-04-25T11:30:13;100821.58;;;11.43;100.00
62948;BME280;51940;52.126;-0.994;2023-04-25T11:32:40;100821.04;;;11.35;100.00
62948;BME280;51940;52.126;-0.994;2023-04-25T11:35:07;100828.71;;;11.16;100.00
62948;BME280;51940;52.126;-0.994;2023-04-25T11:37:32;100830.91;;;10.95;100.00
62948;BME280;51940;52.126;-0.994;2023-04-25T11:39:59;100828.39;;;10.97;100.00
62948;BME280;51940;52.126;-0.994;2023-04-25T11:42:24;100823.77;;;11.05;100.00
62948;BME280;51940;52.126;-0.994;2023-04-25T11:44:50;100825.63;;;11.19;100.00
62948;BME280;51940;52.126;-0.994;2023-04-25T11:47:16;100830.05;;;11.47;100.00
62948;BME280;51940;52.126;-0.994;2023-04-25T11:49:41;100828.92;;;11.67;100.00
62948;BME280;51940;52.126;-0.994;2023-04-25T11:52:06;100829.82;;;11.75;100.00
62948;BME280;51940;52.126;-0.994;2023-04-25T11:54:34;100826.64;;;11.73;100.00
62948;BME280;51940;52.126;-0.994;2023-04-25T11:57:00;100830.31;;;11.61;100.00
62948;BME280;51940;52.126;-0.994;2023-04-25T11:59:26;100831.64;;;11.40;100.00
62948;BME280;51940;52.126;-0.994;2023-04-25T12:01:52;100829.02;;;11.19;100.00
62948;BME280;51940;52.126;-0.994;2023-04-25T12:06:43;100831.99;;;10.84;100.00
62948;BME280;51940;52.126;-0.994;2023-04-25T12:09:10;100830.61;;;10.82;100.00
62948;BME280;51940;52.126;-0.994;2023-04-25T12:14:08;100830.35;;;11.06;100.00
62948;BME280;51940;52.126;-0.994;2023-04-25T12:16:44;100826.85;;;11.30;100.00
62948;BME280;51940;52.126;-0.994;2023-04-25T12:19:09;100832.13;;;11.34;100.00
62948;BME280;51940;52.126;-0.994;2023-04-25T12:21:35;100834.23;;;11.25;100.00
62948;BME280;51940;52.126;-0.994;2023-04-25T12:24:17;100833.64;;;11.29;100.00
62948;BME280;51940;52.126;-0.994;2023-04-25T12:26:51;100830.52;;;11.34;100.00
62948;BME280;51940;52.126;-0.994;2023-04-25T12:29:21;100832.37;;;11.48;100.00
62948;BME280;51940;52.126;-0.994;2023-04-25T12:31:47;100828.96;;;11.74;100.00
62948;BME280;51940;52.126;-0.994;2023-04-25T12:34:12;100832.27;;;11.87;100.00
62948;BME280;51940;52.126;-0.994;2023-04-25T12:36:37;100838.56;;;11.86;100.00
62948;BME280;51940;52.126;-0.994;2023-04-25T12:39:03;100839.66;;;11.66;100.00
62948;BME280;51940;52.126;-0.994;2023-04-25T12:41:29;100841.52;;;11.46;100.00
62948;BME280;51940;52.126;-0.994;2023-04-25T12:43:55;100843.75;;;11.33;100.00
62948;BME280;51940;52.126;-0.994;2023-04-25T12:46:21;100837.77;;;11.28;100.00
62948;BME280;51940;52.126;-0.994;2023-04-25T12:48:48;100840.48;;;11.36;100.00
62948;BME280;51940;52.126;-0.994;2023-04-25T12:51:13;100839.36;;;11.55;100.00
62948;BME280;51940;52.126;-0.994;2023-04-25T12:53:39;100835.66;;;11.78;100.00
62948;BME280;51940;52.126;-0.994;2023-04-25T12:56:06;100834.55;;;12.05;100.00
62948;BME280;51940;52.126;-0.994;2023-04-25T12:58:32;100830.53;;;12.23;100.00
62948;BME280;51940;52.126;-0.994;2023-04-25T13:00:58;100839.14;;;12.30;100.00
62948;BME280;51940;52.126;-0.994;2023-04-25T13:03:25;100837.20;;;12.22;100.00
62948;BME280;51940;52.126;-0.994;2023-04-25T13:05:50;100838.61;;;11.83;100.00
62948;BME280;51940;52.126;-0.994;2023-04-25T13:08:20;100840.27;;;11.55;100.00
62948;BME280;51940;52.126;-0.994;2023-04-25T13:10:47;100837.02;;;11.39;100.00
62948;BME280;51940;52.126;-0.994;2023-04-25T13:13:12;100837.05;;;11.20;100.00
62948;BME280;51940;52.126;-0.994;2023-04-25T13:15:38;100841.92;;;10.97;100.00
62948;BME280;51940;52.126;-0.994;2023-04-25T13:18:03;100837.81;;;10.89;100.00
62948;BME280;51940;52.126;-0.994;2023-04-25T13:20:30;100831.39;;;11.08;100.00
62948;BME280;51940;52.126;-0.994;2023-04-25T13:22:55;100829.58;;;11.27;100.00
62948;BME280;51940;52.126;-0.994;2023-04-25T13:25:21;100828.05;;;11.41;100.00
62948;BME280;51940;52.126;-0.994;2023-04-25T13:27:46;100823.70;;;11.61;100.00
62948;BME280;51940;52.126;-0.994;2023-04-25T13:30:12;100820.05;;;11.90;100.00
62948;BME280;51940;52.126;-0.994;2023-04-25T13:32:37;100828.42;;;11.99;100.00
62948;BME280;51940;52.126;-0.994;2023-04-25T13:35:03;100830.36;;;12.00;100.00
62948;BME280;51940;52.126;-0.994;2023-04-25T13:37:29;100827.29;;;12.02;100.00